Airport View

Enter AWOS ICAO identifier for current METAR.

ex. KFNL

KSRR 262210Z AUTO 32014G21KT 10SM CLR 03/M19 A3032 RMK AO2

26 Feb 2020 22:11

Frequency: 126.475

Phone: 575-336-8455

Other Area AWOS: KALM - KHMN - KROW - KATS

TAF KHMN 261700Z 2617/2723 VRB06KT 9999 SKC QNH3036INS TX08/2623Z TNM06/2713Z